Anton, TX

10:41 AM CST on December 28, 2014 (GMT -0600)
Spade Coop | Change Station
CLOSE
Current Station
Personal Weather Station
Location: Littlefield, TX
Elevation: 3527 ft
Nearby Weather Stations

Elev 3527 ft 33.93 °N, 102.16 °W | Updated 11 minutes ago

Clear
Clear
37.9 °F
Feels Like 31 °F
N
10.0
Wind Variable Wind from SW
Gusts 22.0 mph

Today
High -- | Low -- °F
--% Chance of Precip.
Yesterday
High -- | Low -- °F
Precip. -- in
7:52 AM 5:48 PM
Waxing Crescent, 49% visible
Pressure 30.19 in
Visibility 9.0 miles
Clouds Clear
Windchill 31 °F
Dew Point 21 °F
Humidity 51%
Rainfall 0.00 in
Snow Depth Not available.
UV 1 out of 12
Pollen 4.70 out of 12
Air Quality Not available.
Flu Activity Not available.
METAR KLBB 281553Z 23011KT 9SM CLR 01/M02 A3015 RMK AO2 SLP222 T00111022

More Conditions Fewer Conditions

Pressure 30.19 in
Visibility 9.0 miles
Clouds Clear
Windchill 31 °F
Dew Point 21 °F
Humidity 51%
Rainfall 0.00 in
Snow Depth Not available.
UV 1 out of 12
Pollen 4.70 out of 12
Air Quality Not available.
Flu Activity Not available.
METAR KLBB 281553Z 23011KT 9SM CLR 01/M02 A3015 RMK AO2 SLP222 T00111022

More Conditions Fewer Conditions

10-Day Weather Forecast

Almanac

Astronomy

Dec. 28, 2014 Rise Set
Actual Time
Civil Twilight
Nautical Twilight
Astronomical Twilight
Moon
Length of Visible Light
Length of Day
Tomorrow will be .
, % of the Moon is Illuminated

Today's Extremes

State Highs State Lows

Community

WunderPhotos

Upload Photos

1,781,344 photos uploaded!

WunderBlogs® & News

Nearby

Air Quality

  Air Quality AQ Index Pollutant
Not available.

Snow Depth

Station Depth Elevation

Earthquake Activity

City Distance Mag. Time & Date
Minimum magnitude displayed is 2.5.

Coastal Water Temperatures

Place Temperature

Nearby Weather Stations